This is the latest recevied weather packets stored in our database for station/object XE2MDH-15. If no packets are shown the sender has not sent any weather packets the latest 10 day(s).
| Time | Temp. | Humidity | Pressure | Rain* | Wind** | Luminosity | Snow |
|---|---|---|---|---|---|---|---|
| 1777081062 | 20.56° C | 100% | 707.2 hPa | - | - | - | - |
| 1777080162 | 20.56° C | 100% | 707.2 hPa | - | - | - | - |
| 1777073250 | 20.56° C | 100% | 707.2 hPa | - | - | - | - |
| 1777072220 | 20.56° C | 100% | 707.2 hPa | - | - | - | - |
| 1777071320 | 20.56° C | 100% | 707.2 hPa | - | - | - | - |
| 1777070419 | 20.56° C | 100% | 707.2 hPa | - | - | - | - |
| 1777069519 | 20.56° C | 100% | 707.2 hPa | - | - | - | - |
| 1777068619 | 20.56° C | 100% | 707.2 hPa | - | - | - | - |
| 1777067719 | 20.56° C | 100% | 707.2 hPa | - | - | - | - |
| 1777066819 | 20.56° C | 100% | 707.2 hPa | - | - | - | - |
| 1777065918 | 20.56° C | 100% | 707.2 hPa | - | - | - | - |
| 1777065018 | 20.56° C | 100% | 707.2 hPa | - | - | - | - |
| 1777064041 | 20.56° C | 100% | 707.2 hPa | - | - | - | - |
| 1777062914 | 20.56° C | 100% | 707.2 hPa | - | - | - | - |
| 1777062094 | 22.78° C | 36% | 810.3 hPa | - | - | - | - |
| 1777060122 | 22.22° C | 25% | 811 hPa | - | - | - | - |
| 1777059612 | 21.67° C | 23% | 811 hPa | - | - | - | - |
| 1777059000 | 21.11° C | 27% | 811.4 hPa | - | - | - | - |
| 1777058146 | 22.22° C | 27% | 811.6 hPa | - | - | - | - |
| 1777057945 | 26.11° C | 25% | 811.7 hPa | - | - | - | - |
| 1777056151 | 20° C | 32% | 812.1 hPa | - | - | - | - |
* Rain since midnight (hover to see other rain measurements)
** Current wind speed in m/s (hover to see current wind gust speed)